Time;durP1;ratioP1;P1;durP2;ratioP2;P2;SDS_P1;SDS_P2;PMS_P1;PMS_P2;Temp;Humidity;BMP_temperature;BMP_pressure;BME280_temperature;BME280_humidity;BME280_pressure;Samples;Min_cycle;Max_cycle;Signal;HPM_P1;HPM_P2
2023/07/08 00:01:19;;;;;;;5.82;2.90;;;22.10;1.00;;;;;;4985463;28;38203;-79
2023/07/08 00:03:46;;;;;;;5.72;3.05;;;22.10;1.00;;;;;;4996360;28;37061;-79
2023/07/08 00:06:21;;;;;;;5.32;2.70;;;22.00;1.00;;;;;;4965905;28;39013;-78
2023/07/08 00:08:47;;;;;;;7.57;2.78;;;22.00;99.90;;;;;;4972805;28;38420;-79
2023/07/08 00:11:15;;;;;;;5.78;2.70;;;21.90;99.90;;;;;;4974289;28;37773;-78
2023/07/08 00:13:41;;;;;;;2.75;2.30;;;21.90;1.00;;;;;;4975496;28;37223;-79
2023/07/08 00:16:12;;;;;;;4.13;2.67;;;21.90;99.90;;;;;;4971381;28;38617;-79
2023/07/08 00:18:39;;;;;;;4.75;2.40;;;21.80;99.90;;;;;;4992272;28;37314;-79
2023/07/08 00:21:09;;;;;;;3.83;2.33;;;21.80;99.90;;;;;;4996504;28;39055;-79
2023/07/08 00:23:36;;;;;;;5.78;2.83;;;21.70;1.00;;;;;;4980236;28;35845;-78
2023/07/08 00:26:04;;;;;;;6.03;2.75;;;21.60;99.90;;;;;;4974757;28;38816;-79
2023/07/08 00:28:30;;;;;;;5.80;2.70;;;21.60;99.90;;;;;;5004937;28;39123;-79
2023/07/08 00:30:57;;;;;;;4.57;2.78;;;21.60;99.90;;;;;;5006490;28;39386;-79
2023/07/08 00:33:23;;;;;;;3.33;2.85;;;21.60;1.00;;;;;;5009091;28;38646;-78
2023/07/08 00:35:49;;;;;;;7.10;3.28;;;21.50;1.00;;;;;;5003158;28;40316;-79
2023/07/08 00:38:28;;;;;;;4.07;2.97;;;21.50;99.90;;;;;;5000830;28;38878;-79
2023/07/08 00:41:04;;;;;;;3.45;2.40;;;21.50;12.50;;;;;;4994194;28;38340;-79
2023/07/08 00:43:36;;;;;;;7.18;2.90;;;21.40;1.00;;;;;;4980602;28;48403;-79
2023/07/08 00:46:29;;;;;;;4.05;2.67;;;21.40;99.90;;;;;;4993437;28;38046;-78
2023/07/08 00:49:07;;;;;;;6.60;3.67;;;21.40;1.00;;;;;;4983276;28;38768;-78
2023/07/08 00:51:35;;;;;;;7.30;2.70;;;21.40;99.90;;;;;;4989470;28;47123;-78
2023/07/08 00:54:01;;;;;;;4.50;2.50;;;21.30;1.00;;;;;;4981532;28;35874;-79
2023/07/08 00:56:54;;;;;;;6.47;2.60;;;21.30;1.00;;;;;;4983631;23;37212;-79
2023/07/08 00:59:25;;;;;;;4.90;2.83;;;21.20;99.90;;;;;;4918248;29;39133;-79
2023/07/08 01:01:54;;;;;;;5.55;2.83;;;21.20;1.00;;;;;;5398473;23;40040;-85
2023/07/08 01:04:28;;;;;;;5.88;3.00;;;21.10;1.00;;;;;;4914733;28;36030;-88
2023/07/08 01:06:59;;;;;;;4.18;2.60;;;21.10;99.90;;;;;;4914510;28;39311;-86
2023/07/08 01:09:38;;;;;;;3.80;2.28;;;21.10;99.90;;;;;;4900623;29;37639;-86
2023/07/08 01:12:18;;;;;;;5.93;2.40;;;21.00;99.90;;;;;;4910776;28;37060;-84
2023/07/08 01:14:47;;;;;;;3.25;2.83;;;21.00;1.00;;;;;;4905228;29;37554;-86
2023/07/08 01:17:13;;;;;;;4.60;2.80;;;21.00;99.90;;;;;;4910687;28;38659;-85
2023/07/08 01:19:41;;;;;;;4.38;2.78;;;21.00;1.00;;;;;;4912950;29;37752;-83
2023/07/08 01:22:08;;;;;;;6.13;2.75;;;20.90;1.00;;;;;;4911358;28;36751;-86
2023/07/08 01:24:38;;;;;;;6.57;2.80;;;20.90;1.00;;;;;;4917554;29;37820;-84
2023/07/08 01:27:08;;;;;;;6.88;2.85;;;20.90;1.00;;;;;;4906794;28;37872;-85
2023/07/08 01:29:34;;;;;;;4.82;3.00;;;20.90;1.00;;;;;;4911081;29;37665;-87
2023/07/08 01:32:02;;;;;;;8.07;3.05;;;20.90;1.00;;;;;;4911887;28;37351;-85
2023/07/08 01:34:32;;;;;;;5.35;2.90;;;20.80;1.00;;;;;;4911845;29;47717;-86
2023/07/08 01:37:02;;;;;;;7.10;2.90;;;20.80;1.00;;;;;;4911497;29;38175;-87
2023/07/08 01:39:32;;;;;;;4.72;3.25;;;20.80;1.00;;;;;;4896028;29;47380;-86
2023/07/08 01:41:58;;;;;;;6.63;3.05;;;20.70;1.00;;;;;;4897450;29;37687;-85
2023/07/08 01:44:32;;;;;;;5.75;2.78;;;20.70;99.90;;;;;;4911845;29;36491;-87
2023/07/08 01:47:18;;;;;;;3.45;2.28;;;20.60;39.10;;;;;;4906679;29;38790;-86
2023/07/08 01:49:47;;;;;;;6.25;2.95;;;20.60;1.00;;;;;;4900591;29;47186;-87
2023/07/08 01:52:16;;;;;;;4.03;2.55;;;20.60;1.00;;;;;;4900223;28;37129;-86
2023/07/08 01:54:43;;;;;;;3.38;2.72;;;20.50;99.90;;;;;;4923567;28;36833;-86
2023/07/08 01:57:09;;;;;;;5.55;2.70;;;20.50;34.50;;;;;;4903719;29;40305;-85
2023/07/08 01:59:35;;;;;;;4.30;2.80;;;20.50;97.80;;;;;;4911677;29;36486;-86
2023/07/08 02:02:01;;;;;;;7.07;3.08;;;20.50;99.90;;;;;;4911734;29;38351;-84
2023/07/08 02:04:30;;;;;;;3.63;2.63;;;20.40;99.90;;;;;;4914067;28;36115;-86
2023/07/08 02:06:59;;;;;;;3.58;3.15;;;20.40;99.90;;;;;;4910705;29;39369;-85
2023/07/08 02:09:25;;;;;;;4.60;2.63;;;20.30;99.90;;;;;;4915746;29;37946;-84
2023/07/08 02:11:55;;;;;;;3.70;2.55;;;20.30;99.90;;;;;;4909852;29;37184;-88
2023/07/08 02:14:23;;;;;;;5.05;3.38;;;20.20;99.90;;;;;;4912380;28;36155;-87
2023/07/08 02:16:51;;;;;;;4.10;3.30;;;20.10;99.90;;;;;;4915214;29;37649;-88
2023/07/08 02:19:19;;;;;;;4.78;3.13;;;20.10;99.90;;;;;;4921234;28;39633;-85
2023/07/08 02:21:45;;;;;;;4.47;2.85;;;20.10;1.00;;;;;;4906060;29;37233;-86
2023/07/08 02:24:11;;;;;;;6.10;2.85;;;20.10;99.90;;;;;;4923000;28;35963;-86
2023/07/08 02:26:37;;;;;;;4.95;2.85;;;20.00;99.90;;;;;;4922777;29;38177;-87
2023/07/08 02:29:11;;;;;;;4.60;2.88;;;20.00;99.90;;;;;;4926354;28;37274;-85
2023/07/08 02:31:37;;;;;;;5.07;2.92;;;20.00;1.00;;;;;;4915258;29;37939;-88
2023/07/08 02:34:10;;;;;;;6.57;2.80;;;19.90;1.00;;;;;;4910755;29;35682;-86
2023/07/08 02:36:36;;;;;;;8.05;3.42;;;19.90;1.00;;;;;;4928118;28;38112;-87
2023/07/08 02:39:04;;;;;;;4.80;3.10;;;19.80;1.00;;;;;;4910278;29;37363;-87
2023/07/08 02:41:33;;;;;;;6.07;2.90;;;19.80;1.00;;;;;;4926995;29;47489;-88
2023/07/08 02:43:59;;;;;;;5.53;2.85;;;19.80;1.00;;;;;;4924572;29;36459;-87
2023/07/08 02:46:25;;;;;;;3.55;2.70;;;19.80;1.00;;;;;;4910420;28;37770;-86
2023/07/08 02:48:51;;;;;;;4.03;2.95;;;19.70;1.00;;;;;;4922350;28;38339;-87
2023/07/08 02:51:17;;;;;;;9.57;3.35;;;19.70;1.00;;;;;;4931028;28;38244;-86
2023/07/08 02:53:43;;;;;;;4.18;2.80;;;19.60;1.00;;;;;;4902793;29;35983;-86
2023/07/08 02:56:09;;;;;;;4.03;3.00;;;19.60;1.00;;;;;;4908612;28;37695;-87
2023/07/08 02:58:36;;;;;;;6.82;3.00;;;19.50;1.00;;;;;;4906020;29;37251;-87
2023/07/08 03:01:02;;;;;;;6.32;3.30;;;19.50;1.00;;;;;;4913285;29;36909;-86
2023/07/08 03:03:29;;;;;;;4.50;2.78;;;19.40;1.00;;;;;;4912420;29;36537;-86
2023/07/08 03:05:59;;;;;;;6.55;3.17;;;19.40;1.00;;;;;;4924116;28;37599;-86
2023/07/08 03:08:26;;;;;;;5.65;3.10;;;19.30;1.00;;;;;;4906319;28;40580;-88
2023/07/08 03:10:58;;;;;;;4.57;2.95;;;19.30;1.00;;;;;;4922565;28;38460;-87
2023/07/08 03:13:25;;;;;;;6.45;3.35;;;19.10;1.00;;;;;;4910354;29;36471;-87
2023/07/08 03:15:52;;;;;;;5.00;3.22;;;19.00;1.00;;;;;;4929308;28;38407;-87
2023/07/08 03:18:21;;;;;;;5.72;2.90;;;18.90;1.00;;;;;;4915522;28;38527;-86
2023/07/08 03:20:48;;;;;;;8.98;3.38;;;19.00;1.00;;;;;;4911645;29;36984;-85
2023/07/08 03:23:14;;;;;;;5.30;3.08;;;19.00;1.00;;;;;;4903061;29;36376;-87
2023/07/08 03:25:40;;;;;;;4.07;2.83;;;18.90;1.00;;;;;;4931230;28;37714;-87
2023/07/08 03:28:07;;;;;;;6.78;2.92;;;18.90;1.00;;;;;;4910402;29;37140;-87
2023/07/08 03:30:34;;;;;;;4.07;2.83;;;18.90;1.00;;;;;;4914434;29;37309;-87
2023/07/08 03:33:00;;;;;;;4.65;2.75;;;18.90;1.00;;;;;;4926679;28;36175;-86
2023/07/08 03:35:29;;;;;;;3.58;3.03;;;19.00;1.00;;;;;;4907337;29;46795;-87
2023/07/08 03:37:56;;;;;;;6.72;3.42;;;18.90;1.00;;;;;;4929913;29;37568;-87
2023/07/08 03:40:22;;;;;;;5.32;2.58;;;18.90;1.00;;;;;;4910721;28;38374;-86
2023/07/08 03:42:48;;;;;;;3.17;2.83;;;18.90;1.00;;;;;;4910138;29;36321;-86
2023/07/08 03:45:14;;;;;;;4.60;2.83;;;18.80;1.00;;;;;;4923357;28;39683;-86
2023/07/08 03:47:40;;;;;;;3.97;2.85;;;18.80;1.00;;;;;;4921810;29;37339;-87
2023/07/08 03:50:22;;;;;;;5.43;3.20;;;18.80;1.00;;;;;;4911076;29;38836;-85
2023/07/08 03:52:50;;;;;;;4.22;3.00;;;18.80;1.00;;;;;;4919009;28;36960;-86
2023/07/08 03:55:17;;;;;;;3.83;3.08;;;18.80;1.00;;;;;;4911963;29;38108;-86
2023/07/08 03:57:43;;;;;;;4.80;3.00;;;18.70;1.00;;;;;;4916332;28;37963;-86
2023/07/08 04:00:12;;;;;;;3.97;2.80;;;18.70;1.00;;;;;;4928328;28;37157;-87
2023/07/08 04:02:47;;;;;;;3.95;3.05;;;18.60;9.00;;;;;;4917889;29;36074;-86
2023/07/08 04:05:20;;;;;;;3.75;2.88;;;18.50;10.40;;;;;;4922167;28;20515;-87
2023/07/08 04:07:47;;;;;;;3.40;3.03;;;18.60;1.00;;;;;;4916073;28;37430;-87
2023/07/08 04:10:14;;;;;;;5.40;3.33;;;18.60;7.20;;;;;;4917587;29;36951;-87
2023/07/08 04:12:40;;;;;;;5.82;2.80;;;18.50;12.40;;;;;;4924549;28;38683;-87
2023/07/08 04:15:11;;;;;;;6.35;3.03;;;18.50;21.00;;;;;;4917761;28;37858;-86
2023/07/08 04:17:42;;;;;;;4.43;2.75;;;18.40;30.80;;;;;;4921187;29;37605;-86
2023/07/08 04:20:10;;;;;;;4.70;3.03;;;18.40;35.50;;;;;;4926753;28;37329;-87
2023/07/08 04:22:37;;;;;;;3.67;3.15;;;18.30;38.90;;;;;;4928581;28;38293;-86
2023/07/08 04:25:04;;;;;;;5.55;3.47;;;18.30;43.30;;;;;;4942770;28;39597;-86
2023/07/08 04:27:30;;;;;;;5.80;3.30;;;18.30;45.30;;;;;;4912687;29;47047;-86
2023/07/08 04:29:56;;;;;;;6.10;2.85;;;18.30;43.10;;;;;;4913913;29;38780;-86
2023/07/08 04:32:24;;;;;;;4.95;3.50;;;18.30;41.50;;;;;;4917895;29;36068;-88
2023/07/08 04:34:52;;;;;;;6.45;3.30;;;18.40;33.00;;;;;;4921339;28;39423;-87
2023/07/08 04:37:19;;;;;;;3.70;2.97;;;18.50;32.00;;;;;;4902104;28;38427;-87
2023/07/08 04:39:45;;;;;;;4.90;3.10;;;18.50;44.90;;;;;;4909082;29;38705;-87
2023/07/08 04:42:15;;;;;;;5.78;3.45;;;18.50;49.90;;;;;;4902513;29;35875;-87
2023/07/08 04:44:42;;;;;;;5.60;3.20;;;18.50;45.40;;;;;;4924334;28;39428;-86
2023/07/08 04:47:08;;;;;;;5.03;2.90;;;18.60;47.70;;;;;;4912261;29;37680;-87
2023/07/08 04:49:35;;;;;;;6.47;3.47;;;18.60;55.90;;;;;;4909773;29;38080;-88
2023/07/08 04:52:02;;;;;;;3.83;3.13;;;18.60;52.60;;;;;;4925902;28;37909;-85
2023/07/08 04:54:28;;;;;;;5.53;3.72;;;18.50;60.40;;;;;;4914285;29;38220;-87
2023/07/08 04:56:55;;;;;;;4.13;3.25;;;18.50;58.90;;;;;;4923817;28;37259;-87
2023/07/08 04:59:34;;;;;;;3.70;2.90;;;18.50;67.80;;;;;;4899410;29;37247;-86
2023/07/08 05:02:00;;;;;;;3.58;3.05;;;18.60;59.10;;;;;;4927109;28;36381;-88
2023/07/08 05:04:28;;;;;;;10.50;3.30;;;18.70;36.40;;;;;;4918341;29;38733;-88
2023/07/08 05:06:56;;;;;;;5.00;3.13;;;18.80;28.80;;;;;;4910129;28;37455;-87
2023/07/08 05:09:25;;;;;;;5.50;3.15;;;18.90;30.20;;;;;;4917845;29;37164;-88
2023/07/08 05:11:52;;;;;;;4.05;3.03;;;19.20;37.30;;;;;;4910786;29;36392;-88
2023/07/08 05:14:18;;;;;;;3.78;3.00;;;19.40;17.40;;;;;;4925557;29;39197;-88
2023/07/08 05:16:44;;;;;;;6.22;3.90;;;19.70;12.50;;;;;;4923046;28;39330;-87
2023/07/08 05:19:11;;;;;;;5.63;3.60;;;19.90;1.00;;;;;;4912874;29;37928;-86
2023/07/08 05:21:38;;;;;;;4.13;2.92;;;20.10;1.00;;;;;;4917423;28;35998;-87
2023/07/08 05:24:05;;;;;;;6.18;3.00;;;20.20;1.00;;;;;;4912483;28;38501;-86
2023/07/08 05:26:32;;;;;;;5.40;3.20;;;20.40;1.00;;;;;;4928569;28;37082;-87
2023/07/08 05:28:59;;;;;;;4.45;3.30;;;20.60;1.00;;;;;;4923283;28;36914;-87
2023/07/08 05:31:25;;;;;;;5.22;3.22;;;20.50;1.00;;;;;;4930294;28;36314;-87
2023/07/08 05:33:51;;;;;;;4.82;3.38;;;20.60;1.00;;;;;;4918840;28;37808;-87
2023/07/08 05:36:18;;;;;;;4.88;2.83;;;20.80;1.00;;;;;;4915647;28;38799;-88
2023/07/08 05:38:44;;;;;;;4.57;3.13;;;21.00;1.00;;;;;;4912978;29;37206;-89
2023/07/08 05:41:12;;;;;;;4.15;2.92;;;21.10;1.00;;;;;;4923743;28;35954;-88
2023/07/08 05:43:38;;;;;;;4.93;3.03;;;21.20;1.00;;;;;;4918336;28;38955;-87
2023/07/08 05:46:04;;;;;;;6.25;3.20;;;21.30;1.00;;;;;;4908459;28;37437;-86
2023/07/08 05:48:30;;;;;;;4.32;3.10;;;21.40;1.00;;;;;;4906056;29;38734;-86
2023/07/08 05:50:57;;;;;;;4.15;3.13;;;21.50;1.00;;;;;;4910742;29;35709;-86
2023/07/08 05:53:23;;;;;;;3.85;2.92;;;21.50;1.00;;;;;;4906143;28;40757;-87
2023/07/08 05:55:50;;;;;;;6.38;3.78;;;21.60;1.00;;;;;;4918612;28;37213;-87
2023/07/08 05:58:16;;;;;;;8.27;3.40;;;21.70;1.00;;;;;;4911544;28;37252;-87
2023/07/08 06:00:43;;;;;;;6.13;3.05;;;21.80;1.00;;;;;;4918799;28;37163;-88
2023/07/08 06:03:10;;;;;;;4.18;3.40;;;22.10;1.00;;;;;;4907372;29;39142;-89
2023/07/08 06:05:37;;;;;;;5.35;3.25;;;22.20;1.00;;;;;;4910250;29;37765;-89
2023/07/08 06:08:05;;;;;;;5.85;3.13;;;22.20;1.00;;;;;;4907352;29;37091;-87
2023/07/08 06:10:31;;;;;;;5.10;3.35;;;22.30;1.00;;;;;;4911784;29;35972;-90
2023/07/08 06:12:57;;;;;;;4.40;3.10;;;22.40;99.90;;;;;;4915653;29;37768;-87
2023/07/08 06:15:23;;;;;;;5.90;3.45;;;22.60;99.90;;;;;;4911509;29;38966;-88
2023/07/08 06:17:49;;;;;;;6.72;3.83;;;22.70;99.90;;;;;;4925501;28;36939;-90
2023/07/08 06:20:16;;;;;;;5.63;3.50;;;22.80;10.00;;;;;;4914508;29;37391;-87
2023/07/08 06:22:42;;;;;;;4.38;3.15;;;22.80;1.00;;;;;;4912833;29;37897;-87
2023/07/08 06:25:08;;;;;;;5.50;2.83;;;23.10;99.90;;;;;;4911868;29;37717;-86
2023/07/08 06:27:34;;;;;;;4.43;3.00;;;23.30;99.90;;;;;;4916714;29;36994;-87
2023/07/08 06:30:00;;;;;;;5.60;4.07;;;23.50;28.50;;;;;;4906569;29;36250;-89
2023/07/08 06:32:26;;;;;;;5.07;3.47;;;23.50;1.00;;;;;;4928135;28;39090;-89
2023/07/08 06:34:52;;;;;;;4.85;3.95;;;23.70;1.00;;;;;;4916813;29;37681;-89
2023/07/08 06:37:18;;;;;;;7.47;3.33;;;23.80;1.00;;;;;;4920687;29;37554;-90
2023/07/08 06:39:45;;;;;;;4.18;3.17;;;23.90;1.00;;;;;;4917387;29;36400;-87
2023/07/08 06:42:11;;;;;;;5.93;3.15;;;23.80;1.00;;;;;;4915822;28;37650;-89
2023/07/08 06:44:37;;;;;;;4.82;3.03;;;23.80;99.90;;;;;;4916699;29;37359;-92
2023/07/08 06:47:04;;;;;;;7.07;3.28;;;24.00;1.00;;;;;;4938895;28;36937;-94
2023/07/08 06:49:30;;;;;;;4.40;3.17;;;24.10;1.00;;;;;;4926015;29;39015;-95
2023/07/08 06:51:59;;;;;;;4.22;3.45;;;24.30;99.90;;;;;;4908370;29;37929;-89
2023/07/08 06:54:27;;;;;;;4.70;3.10;;;24.30;99.90;;;;;;4911195;28;37435;-88
2023/07/08 06:56:53;;;;;;;5.70;3.38;;;24.50;1.00;;;;;;4913956;28;38224;-92
2023/07/08 06:59:20;;;;;;;11.85;3.95;;;24.60;1.00;;;;;;4907365;29;35826;-91
2023/07/08 07:01:46;;;;;;;6.72;3.53;;;24.60;99.90;;;;;;4905925;29;38641;-90
2023/07/08 07:04:12;;;;;;;5.15;3.15;;;24.90;99.90;;;;;;4911448;29;38075;-89
2023/07/08 07:06:38;;;;;;;6.82;3.55;;;24.90;1.00;;;;;;4915409;28;38043;-87
2023/07/08 07:09:04;;;;;;;8.88;3.72;;;25.00;1.00;;;;;;4908816;29;37810;-87
2023/07/08 07:11:30;;;;;;;3.92;3.53;;;25.10;1.00;;;;;;4894538;29;37756;-89
2023/07/08 07:13:56;;;;;;;6.05;3.45;;;25.20;1.00;;;;;;4916763;28;37542;-89
2023/07/08 07:16:23;;;;;;;6.68;3.10;;;25.20;1.00;;;;;;4902772;29;37142;-86
2023/07/08 07:18:51;;;;;;;6.70;3.65;;;25.30;1.00;;;;;;4907718;29;35768;-90
2023/07/08 07:21:35;;;;;;;;;;;;;;;;;;;;;
2023/07/08 07:24:01;;;;;;;4.78;3.60;;;25.70;99.90;;;;;;4894009;29;39050;-92
2023/07/08 07:26:32;;;;;;;6.38;3.50;;;25.80;1.00;;;;;;4909708;28;35675;-91
2023/07/08 07:28:58;;;;;;;8.63;4.03;;;25.90;1.00;;;;;;4905810;29;36444;-89
2023/07/08 07:31:24;;;;;;;5.90;3.85;;;26.10;1.00;;;;;;4908300;29;37381;-92
2023/07/08 07:33:52;;;;;;;7.65;3.38;;;26.00;99.90;;;;;;4904339;28;38223;-91
2023/07/08 07:36:18;;;;;;;6.43;3.80;;;26.10;1.00;;;;;;4934561;28;36511;-94
2023/07/08 07:38:45;;;;;;;4.90;3.50;;;26.10;1.00;;;;;;4930167;28;37981;-91
2023/07/08 07:41:12;;;;;;;5.32;3.08;;;26.30;1.00;;;;;;4905758;29;38009;-91
2023/07/08 07:43:38;;;;;;;4.88;3.40;;;26.60;1.00;;;;;;4915623;28;37629;-91
2023/07/08 07:46:05;;;;;;;6.32;3.70;;;26.70;99.90;;;;;;4909688;29;37318;-93
2023/07/08 07:48:32;;;;;;;7.95;3.60;;;26.80;1.00;;;;;;4925941;28;36880;-88
2023/07/08 07:50:58;;;;;;;5.40;3.38;;;26.90;1.00;;;;;;4901457;29;38751;-88
2023/07/08 07:53:24;;;;;;;8.73;4.07;;;26.80;1.00;;;;;;4904359;28;37836;-83
2023/07/08 07:56:01;;;;;;;4.65;3.53;;;26.70;1.00;;;;;;4895982;28;37394;-85
2023/07/08 07:58:28;;;;;;;7.65;4.20;;;27.00;99.90;;;;;;4898390;28;46098;-84
2023/07/08 08:00:54;;;;;;;7.40;3.72;;;26.90;1.00;;;;;;4894632;29;38141;-80
2023/07/08 08:03:21;;;;;;;5.03;3.83;;;26.90;99.90;;;;;;4894708;29;39028;-85
2023/07/08 08:05:47;;;;;;;7.95;4.68;;;26.90;1.00;;;;;;4873070;29;37326;-83
2023/07/08 08:08:14;;;;;;;6.55;3.88;;;26.70;99.90;;;;;;4880331;29;36280;-82
2023/07/08 08:10:41;;;;;;;6.93;4.20;;;26.80;1.00;;;;;;4879767;29;38346;-81
2023/07/08 08:13:08;;;;;;;5.90;4.10;;;26.80;1.00;;;;;;4885945;29;38765;-81
2023/07/08 08:15:34;;;;;;;6.35;3.95;;;26.50;1.00;;;;;;4875464;29;37227;-81
2023/07/08 08:18:00;;;;;;;6.15;3.95;;;26.80;1.00;;;;;;4879451;29;37482;-82
2023/07/08 08:20:29;;;;;;;4.32;3.78;;;27.40;99.90;;;;;;4898667;28;37895;-80
2023/07/08 08:22:55;;;;;;;7.00;3.83;;;27.80;14.90;;;;;;4882376;29;37446;-81
2023/07/08 08:25:24;;;;;;;6.50;4.05;;;28.20;1.00;;;;;;4881211;29;36827;-80
2023/07/08 08:27:53;;;;;;;5.95;3.97;;;28.10;99.90;;;;;;4888517;29;36318;-82
2023/07/08 08:30:20;;;;;;;4.97;3.28;;;28.30;1.00;;;;;;4871510;29;37326;-81
2023/07/08 08:32:46;;;;;;;3.72;3.33;;;28.40;1.00;;;;;;4877589;29;38942;-80
2023/07/08 08:35:12;;;;;;;6.25;4.20;;;28.40;1.00;;;;;;4881039;29;37842;-81
2023/07/08 08:37:38;;;;;;;6.75;4.20;;;28.60;99.90;;;;;;4879714;29;36242;-83
2023/07/08 08:40:05;;;;;;;5.13;4.00;;;28.90;99.90;;;;;;4894542;29;37745;-82
2023/07/08 08:42:39;;;;;;;6.72;4.10;;;29.10;99.90;;;;;;4876900;29;37277;-84
2023/07/08 08:45:11;;;;;;;5.07;4.30;;;29.40;99.90;;;;;;4880604;29;37741;-81
2023/07/08 08:47:47;;;;;;;7.22;4.38;;;29.40;1.00;;;;;;4894445;29;37064;-80
2023/07/08 08:50:50;;;;;;;8.45;4.20;;;29.20;99.90;;;;;;4866620;29;41028;-81
2023/07/08 08:53:19;;;;;;;5.22;3.63;;;29.40;1.00;;;;;;4878339;29;38240;-78
2023/07/08 08:55:57;;;;;;;9.75;4.18;;;29.40;99.90;;;;;;4887642;29;38012;-80
2023/07/08 08:58:35;;;;;;;4.50;3.70;;;29.70;60.50;;;;;;4876190;29;36636;-81
2023/07/08 09:01:04;;;;;;;10.73;4.63;;;29.60;1.00;;;;;;4880472;29;41439;-89
2023/07/08 09:04:00;;;;;;;6.13;4.50;;;29.60;1.00;;;;;;4885343;29;47419;-81
2023/07/08 09:06:30;;;;;;;5.72;4.03;;;29.90;99.90;;;;;;4910631;29;37627;-88
2023/07/08 09:09:03;;;;;;;7.53;3.88;;;30.10;1.00;;;;;;4907783;29;36021;-86
2023/07/08 09:11:48;;;;;;;8.77;4.43;;;30.30;99.90;;;;;;4916770;29;47024;-86
2023/07/08 09:14:23;;;;;;;6.78;4.72;;;30.70;1.00;;;;;;4910930;29;38527;-86
2023/07/08 09:17:34;;;;;;;6.70;4.10;;;30.80;99.90;;;;;;4910482;29;35386;-86
2023/07/08 09:20:03;;;;;;;6.30;3.70;;;30.90;1.00;;;;;;4898398;28;47205;-89
2023/07/08 09:22:39;;;;;;;4.70;4.07;;;30.80;99.90;;;;;;4912371;29;39908;-88
2023/07/08 09:25:26;;;;;;;6.05;3.95;;;30.80;1.00;;;;;;4908671;29;38428;-89
2023/07/08 09:27:52;;;;;;;5.40;3.97;;;30.90;99.90;;;;;;4879719;29;47487;-90
2023/07/08 09:30:21;;;;;;;6.05;4.20;;;31.20;1.00;;;;;;4934411;28;36112;-91
2023/07/08 09:32:48;;;;;;;4.97;3.88;;;31.50;99.90;;;;;;4920648;29;37671;-91
2023/07/08 09:35:22;;;;;;;6.75;3.83;;;31.60;1.00;;;;;;4910948;29;39527;-87
2023/07/08 09:37:49;;;;;;;8.10;4.32;;;31.80;1.00;;;;;;4930556;29;36991;-92
2023/07/08 09:40:21;;;;;;;6.95;4.68;;;31.70;99.90;;;;;;4908824;29;36166;-89
2023/07/08 09:42:54;;;;;;;6.53;4.05;;;31.90;99.90;;;;;;4911491;29;37888;-86
2023/07/08 09:45:24;;;;;;;8.25;4.53;;;31.90;1.00;;;;;;4906390;29;37520;-83
2023/07/08 09:47:56;;;;;;;6.63;4.68;;;31.90;99.90;;;;;;4913338;29;38198;-87
2023/07/08 09:50:26;;;;;;;9.05;3.83;;;31.90;99.90;;;;;;4914440;29;35944;-87
2023/07/08 09:52:57;;;;;;;7.22;4.30;;;32.00;13.10;;;;;;4930446;28;36411;-89
2023/07/08 09:55:24;;;;;;;9.18;5.03;;;32.20;51.30;;;;;;4914244;29;37753;-88
2023/07/08 09:57:52;;;;;;;5.20;4.15;;;32.10;1.00;;;;;;4908106;29;36964;-82
2023/07/08 10:00:26;;;;;;;9.43;4.97;;;32.10;25.40;;;;;;4902010;29;38021;-82
2023/07/08 10:02:56;;;;;;;6.18;4.38;;;32.20;1.00;;;;;;4902415;29;48435;-83
2023/07/08 10:05:38;;;;;;;4.68;4.10;;;32.40;20.20;;;;;;4923146;28;39360;-83
2023/07/08 10:08:19;;;;;;;6.95;4.63;;;32.70;99.90;;;;;;4929561;28;38747;-84
2023/07/08 10:10:49;;;;;;;5.43;3.90;;;32.70;1.00;;;;;;4916259;29;37262;-86
2023/07/08 10:13:38;;;;;;;6.40;4.10;;;32.70;1.00;;;;;;4931027;28;38667;-84
2023/07/08 10:16:15;;;;;;;8.18;4.47;;;32.80;1.00;;;;;;4908617;28;36786;-87
2023/07/08 10:18:42;;;;;;;6.38;3.88;;;32.80;34.90;;;;;;4912325;28;36973;-85
2023/07/08 10:21:17;;;;;;;6.72;4.05;;;32.50;99.90;;;;;;4909073;29;37382;-89
2023/07/08 10:23:52;;;;;;;6.70;4.20;;;32.90;1.00;;;;;;4911510;29;38640;-86
2023/07/08 10:26:31;;;;;;;5.95;3.97;;;33.40;1.00;;;;;;4910584;29;37382;-85
2023/07/08 10:29:29;;;;;;;8.18;4.32;;;33.40;1.00;;;;;;4912853;29;36917;-88
2023/07/08 10:32:18;;;;;;;5.97;4.68;;;33.80;10.70;;;;;;4911865;29;47559;-88
2023/07/08 10:35:18;;;;;;;11.15;4.32;;;33.80;1.00;;;;;;4908145;29;47272;-87
2023/07/08 10:37:47;;;;;;;9.13;5.13;;;33.80;1.00;;;;;;4912562;29;47373;-89
2023/07/08 10:40:47;;;;;;;10.05;4.95;;;33.90;1.00;;;;;;4920080;29;38063;-89
2023/07/08 10:43:25;;;;;;;8.68;5.18;;;34.10;1.00;;;;;;4931482;28;36369;-90
2023/07/08 10:46:18;;;;;;;5.53;4.60;;;34.10;1.00;;;;;;4917191;29;37538;-87
2023/07/08 10:49:20;;;;;;;7.50;4.25;;;33.60;1.00;;;;;;4911410;28;48165;-87
2023/07/08 10:52:08;;;;;;;7.68;4.68;;;33.70;1.00;;;;;;4915517;29;47306;-87
2023/07/08 10:54:34;;;;;;;5.00;4.50;;;33.80;1.00;;;;;;4908503;29;47355;-87
2023/07/08 10:57:19;;;;;;;10.85;4.97;;;33.80;1.00;;;;;;4911826;29;38943;-88
2023/07/08 10:59:54;;;;;;;13.45;5.47;;;33.70;1.00;;;;;;4918161;28;48580;-88
2023/07/08 11:02:39;;;;;;;5.72;4.28;;;33.70;99.10;;;;;;4917817;28;37189;-89
2023/07/08 11:05:34;;;;;;;6.82;4.88;;;33.80;1.00;;;;;;4903308;28;36194;-88
2023/07/08 11:08:03;;;;;;;9.20;5.03;;;33.50;1.00;;;;;;4921670;28;39333;-90
2023/07/08 11:10:36;;;;;;;8.20;5.75;;;33.50;1.00;;;;;;4892907;29;48303;-92
2023/07/08 11:13:10;;;;;;;8.52;4.72;;;33.30;1.00;;;;;;4922976;29;38352;-92
2023/07/08 11:15:44;;;;;;;8.40;5.30;;;33.60;1.00;;;;;;4913524;29;36427;-91
2023/07/08 11:18:17;;;;;;;8.90;4.90;;;33.70;1.00;;;;;;4901420;29;39014;-91
2023/07/08 11:20:53;;;;;;;7.55;5.70;;;34.10;1.00;;;;;;4901458;29;37442;-84
2023/07/08 11:23:26;;;;;;;8.93;5.47;;;34.20;1.00;;;;;;4904962;29;38260;-89
2023/07/08 11:26:03;;;;;;;6.82;5.80;;;34.10;1.00;;;;;;4908148;29;37123;-92
2023/07/08 11:28:29;;;;;;;6.65;5.35;;;33.80;1.00;;;;;;4912426;28;47268;-91
2023/07/08 11:31:00;;;;;;;8.63;5.47;;;33.70;1.00;;;;;;4895706;29;38552;-90
2023/07/08 11:33:28;;;;;;;7.43;5.68;;;33.50;1.00;;;;;;4897104;29;37007;-93
2023/07/08 11:35:57;;;;;;;7.63;6.10;;;33.10;1.00;;;;;;4912176;29;37211;-87
2023/07/08 11:38:25;;;;;;;8.32;5.88;;;33.60;1.00;;;;;;4931113;28;39142;-89
2023/07/08 11:40:54;;;;;;;10.43;6.03;;;33.90;1.00;;;;;;4912955;29;37585;-89
2023/07/08 11:43:23;;;;;;;10.43;5.85;;;34.10;1.00;;;;;;4907152;29;37271;-90
2023/07/08 11:45:55;;;;;;;6.68;5.15;;;34.20;1.00;;;;;;4907991;28;37066;-85
2023/07/08 11:48:31;;;;;;;5.90;5.10;;;34.20;1.00;;;;;;4910010;28;38075;-85
2023/07/08 11:50:58;;;;;;;6.90;5.18;;;34.40;1.00;;;;;;4939461;28;39042;-88
2023/07/08 11:53:30;;;;;;;9.27;5.85;;;34.50;1.00;;;;;;4915448;28;37461;-87
2023/07/08 11:55:59;;;;;;;10.88;6.30;;;33.80;1.00;;;;;;4932625;28;37613;-88
2023/07/08 11:58:28;;;;;;;8.20;5.93;;;33.80;1.00;;;;;;4942086;28;38883;-89
2023/07/08 12:01:04;;;;;;;10.00;5.93;;;33.60;1.00;;;;;;4910416;29;37608;-91
2023/07/08 12:03:51;;;;;;;6.43;5.15;;;33.70;1.00;;;;;;4918851;28;48472;-89
2023/07/08 12:06:27;;;;;;;10.00;5.70;;;33.70;1.00;;;;;;4931308;28;37601;-89
2023/07/08 12:08:59;;;;;;;8.80;6.10;;;33.90;1.00;;;;;;4920053;28;39784;-83
2023/07/08 12:11:35;;;;;;;9.30;5.55;;;34.30;1.00;;;;;;4906543;28;38404;-80
2023/07/08 12:14:04;;;;;;;7.00;5.40;;;34.40;1.00;;;;;;4915466;28;39337;-80
2023/07/08 12:16:31;;;;;;;8.85;5.43;;;34.50;1.00;;;;;;4907478;28;46973;-91
2023/07/08 12:18:59;;;;;;;11.00;6.40;;;34.60;1.00;;;;;;4915841;29;37642;-88
2023/07/08 12:21:27;;;;;;;6.13;5.47;;;34.00;1.00;;;;;;4933389;28;38959;-90
2023/07/08 12:23:54;;;;;;;6.93;5.47;;;34.30;1.00;;;;;;4930915;29;39387;-91
2023/07/08 12:26:21;;;;;;;7.65;5.63;;;34.20;1.00;;;;;;4917327;28;36303;-91
2023/07/08 12:28:48;;;;;;;9.98;5.30;;;34.10;1.00;;;;;;4923391;28;38985;-92
2023/07/08 12:31:20;;;;;;;8.10;5.15;;;34.20;1.00;;;;;;4928197;28;37040;-92
2023/07/08 12:33:47;;;;;;;10.20;5.32;;;34.40;1.00;;;;;;4940519;28;38278;-92
2023/07/08 12:36:24;;;;;;;5.78;5.18;;;34.40;1.00;;;;;;4915457;29;36484;-93
2023/07/08 12:38:52;;;;;;;5.65;4.70;;;34.10;1.00;;;;;;4933510;29;39028;-93
2023/07/08 12:41:21;;;;;;;5.95;4.97;;;34.50;1.00;;;;;;4927385;28;38679;-94
2023/07/08 12:43:48;;;;;;;6.25;4.65;;;34.60;1.00;;;;;;4919834;29;37525;-93
2023/07/08 12:46:18;;;;;;;6.53;4.57;;;34.90;1.00;;;;;;4916978;29;37504;-91
2023/07/08 12:48:48;;;;;;;6.47;4.30;;;35.20;1.00;;;;;;4916223;29;37997;-93
2023/07/08 12:51:20;;;;;;;5.32;4.50;;;35.40;1.00;;;;;;4925083;29;38492;-93
2023/07/08 12:53:47;;;;;;;6.10;4.78;;;35.60;1.00;;;;;;4922770;28;38722;-89
2023/07/08 12:56:15;;;;;;;6.05;4.55;;;35.70;1.00;;;;;;4904844;29;36166;-87
2023/07/08 12:58:44;;;;;;;5.35;4.38;;;34.70;1.00;;;;;;4929066;28;38657;-88
2023/07/08 13:01:26;;;;;;;4.20;3.80;;;34.90;1.00;;;;;;4909399;29;37252;-87
2023/07/08 13:04:10;;;;;;;6.82;4.03;;;34.40;1.00;;;;;;4908709;29;36860;-86
2023/07/08 13:06:39;;;;;;;6.15;4.00;;;33.60;1.00;;;;;;4915253;28;48496;-88
2023/07/08 13:09:24;;;;;;;5.43;3.88;;;33.50;1.00;;;;;;4916516;28;38761;-88
2023/07/08 13:11:52;;;;;;;7.80;4.20;;;34.30;1.00;;;;;;4915031;28;39349;-78